Time;durP1;ratioP1;P1;durP2;ratioP2;P2;SDS_P1;SDS_P2;PMS_P1;PMS_P2;Temp;Humidity;BMP_temperature;BMP_pressure;BME280_temperature;BME280_humidity;BME280_pressure;Samples;Min_cycle;Max_cycle;Signal;HPM_P1;HPM_P2
2022/06/02 00:01:18;;;;;;;9.32;4.93;;;14.10;66.30;;;;;;5042588;28;20353;-65
2022/06/02 00:03:59;;;;;;;8.23;5.70;;;14.10;66.40;;;;;;5047328;28;20031;-65
2022/06/02 00:07:04;;;;;;;8.48;5.15;;;14.10;66.40;;;;;;5048548;28;20034;-65
2022/06/02 00:10:05;;;;;;;8.30;5.20;;;14.10;66.60;;;;;;5046596;28;20044;-65
2022/06/02 00:12:47;;;;;;;9.00;5.50;;;14.10;66.60;;;;;;5046436;28;20036;-65
2022/06/02 00:15:33;;;;;;;9.98;5.03;;;14.00;66.70;;;;;;5056422;28;20126;-65
2022/06/02 00:18:07;;;;;;;9.68;5.35;;;14.00;66.80;;;;;;5048480;28;20044;-64
2022/06/02 00:20:59;;;;;;;9.25;5.25;;;14.00;66.90;;;;;;5043134;28;20040;-65
2022/06/02 00:23:43;;;;;;;;;;;14.00;67.00;;;;;;5049539;28;20112;-65
2022/06/02 00:26:41;;;;;;;9.20;4.63;;;14.00;66.90;;;;;;5052561;28;20230;-65
2022/06/02 00:29:07;;;;;;;7.90;4.70;;;13.90;67.00;;;;;;5049107;28;20029;-64
2022/06/02 00:32:08;;;;;;;9.10;5.22;;;13.90;67.00;;;;;;5044853;28;20029;-64
2022/06/02 00:35:15;;;;;;;8.90;5.35;;;13.90;67.30;;;;;;5051264;28;20662;-65
2022/06/02 00:38:04;;;;;;;8.25;5.40;;;13.90;67.30;;;;;;5013151;28;20049;-64
2022/06/02 00:40:32;;;;;;;8.43;5.72;;;13.90;67.40;;;;;;5017411;28;20029;-65
2022/06/02 00:43:05;;;;;;;9.30;5.93;;;13.80;67.50;;;;;;5024791;28;20185;-65
2022/06/02 00:45:31;;;;;;;8.80;6.13;;;13.80;67.50;;;;;;5035235;28;20044;-65
2022/06/02 00:48:12;;;;;;;10.70;6.60;;;13.80;67.50;;;;;;5030074;28;20055;-65
2022/06/02 00:51:06;;;;;;;8.80;6.13;;;13.80;67.70;;;;;;5034270;28;20040;-65
2022/06/02 00:53:41;;;;;;;8.77;5.82;;;13.80;67.70;;;;;;5032982;28;20066;-65
2022/06/02 00:59:39;;;;;;;7.35;5.32;;;13.80;67.90;;;;;;5028025;28;20179;-64
2022/06/02 01:02:05;;;;;;;11.23;6.10;;;13.70;67.90;;;;;;5033530;28;20053;-65
2022/06/02 01:04:38;;;;;;;9.15;6.28;;;13.70;68.00;;;;;;5016647;28;20109;-65
2022/06/02 01:07:13;;;;;;;9.75;6.20;;;13.70;68.10;;;;;;5007388;28;20077;-64
2022/06/02 01:10:17;;;;;;;9.43;6.32;;;13.70;68.20;;;;;;5032614;28;20522;-64
2022/06/02 01:13:14;;;;;;;8.80;6.32;;;13.60;68.30;;;;;;4955835;29;20043;-65
2022/06/02 01:15:49;;;;;;;8.80;6.15;;;13.60;68.30;;;;;;4978201;28;20474;-65
2022/06/02 01:18:33;;;;;;;10.18;6.68;;;13.60;68.40;;;;;;4981864;28;20034;-65
2022/06/02 01:21:29;;;;;;;9.35;6.05;;;13.60;68.40;;;;;;4987287;28;20130;-65
2022/06/02 01:24:37;;;;;;;9.63;6.18;;;13.60;68.50;;;;;;4992156;28;20034;-65
2022/06/02 01:27:33;;;;;;;9.25;6.53;;;13.60;68.50;;;;;;4963119;28;20125;-65
2022/06/02 01:30:20;;;;;;;8.57;6.10;;;13.50;68.60;;;;;;4965910;28;20038;-65
2022/06/02 01:33:05;;;;;;;8.30;5.97;;;13.50;68.70;;;;;;4988098;28;20038;-65
2022/06/02 01:35:43;;;;;;;8.95;5.78;;;13.50;68.70;;;;;;4961091;28;20033;-65
2022/06/02 01:38:27;;;;;;;9.75;6.82;;;13.50;68.80;;;;;;4994164;28;20034;-65
2022/06/02 01:41:18;;;;;;;10.32;6.95;;;13.50;68.80;;;;;;4986063;28;20483;-65
2022/06/02 01:43:46;;;;;;;9.43;6.43;;;13.40;68.80;;;;;;4961708;28;20031;-64
2022/06/02 01:46:14;;;;;;;8.93;6.53;;;13.40;68.80;;;;;;4992308;28;20116;-65
2022/06/02 01:49:14;;;;;;;10.15;6.82;;;13.40;68.90;;;;;;5040892;28;20481;-65
2022/06/02 01:52:06;;;;;;;9.80;6.68;;;13.40;69.00;;;;;;5062424;28;20048;-64
2022/06/02 01:54:57;;;;;;;11.23;6.88;;;13.30;69.10;;;;;;5041837;28;20013;-65
2022/06/02 01:57:40;;;;;;;12.35;6.70;;;13.30;69.20;;;;;;5051818;28;20461;-65
2022/06/02 02:00:08;;;;;;;10.32;6.97;;;13.30;69.20;;;;;;5037727;28;20072;-65
2022/06/02 02:02:42;;;;;;;10.05;6.63;;;13.30;69.20;;;;;;5041759;28;20957;-65
2022/06/02 02:05:50;;;;;;;9.93;6.90;;;13.30;69.30;;;;;;5052024;28;20033;-65
2022/06/02 02:08:28;;;;;;;9.73;6.93;;;13.20;69.20;;;;;;5050267;28;20052;-64
2022/06/02 02:11:15;;;;;;;9.65;6.55;;;13.30;69.30;;;;;;5036844;28;20032;-64
2022/06/02 02:14:13;;;;;;;10.68;7.20;;;13.30;69.40;;;;;;5032343;28;20033;-65
2022/06/02 02:17:00;;;;;;;10.40;6.93;;;13.20;69.40;;;;;;5036708;28;20034;-65
2022/06/02 02:19:28;;;;;;;11.02;7.10;;;13.20;69.40;;;;;;5039498;28;20045;-65
2022/06/02 02:22:02;;;;;;;10.65;7.50;;;13.20;69.50;;;;;;5046243;28;20052;-65
2022/06/02 02:24:34;;;;;;;10.25;7.80;;;13.10;69.50;;;;;;5039425;28;20032;-64
2022/06/02 02:27:11;;;;;;;10.63;7.78;;;13.10;69.60;;;;;;5045117;28;20073;-65
2022/06/02 02:29:58;;;;;;;10.18;7.22;;;13.10;69.70;;;;;;5037538;28;20362;-65
2022/06/02 02:33:00;;;;;;;11.98;8.15;;;13.10;69.80;;;;;;5045952;28;20125;-65
2022/06/02 02:36:00;;;;;;;10.32;7.32;;;13.00;70.50;;;;;;5037511;28;20049;-65
2022/06/02 02:38:42;;;;;;;10.70;7.47;;;13.00;69.90;;;;;;5040199;28;20108;-65
2022/06/02 02:41:12;;;;;;;;;;;13.00;69.90;;;;;;5045789;28;20361;-65
2022/06/02 02:43:51;;;;;;;11.50;6.72;;;13.00;69.80;;;;;;5050248;28;19909;-65
2022/06/02 02:46:42;;;;;;;10.52;7.75;;;13.00;69.90;;;;;;5045363;28;20120;-65
2022/06/02 02:49:14;;;;;;;10.57;7.72;;;12.90;69.90;;;;;;5044306;28;20043;-64
2022/06/02 02:52:16;;;;;;;11.60;8.40;;;12.90;70.00;;;;;;5038738;28;20025;-65
2022/06/02 02:55:03;;;;;;;11.25;7.90;;;12.90;70.10;;;;;;5021801;28;20014;-65
2022/06/02 02:57:44;;;;;;;10.05;7.35;;;12.90;70.10;;;;;;5036416;28;20067;-65
2022/06/02 03:00:27;;;;;;;10.50;7.82;;;12.90;70.20;;;;;;5038943;28;20025;-64
2022/06/02 03:03:18;;;;;;;11.77;7.97;;;12.90;70.20;;;;;;5034502;28;20037;-65
2022/06/02 03:06:03;;;;;;;11.02;8.27;;;12.80;70.10;;;;;;5054673;28;20037;-65
2022/06/02 03:09:05;;;;;;;12.20;8.65;;;12.80;70.20;;;;;;5033099;28;20425;-65
2022/06/02 03:11:52;;;;;;;11.98;8.25;;;12.80;70.20;;;;;;5033231;28;20447;-65
2022/06/02 03:14:32;;;;;;;11.85;8.73;;;12.80;70.20;;;;;;5035206;28;20175;-65
2022/06/02 03:17:22;;;;;;;11.60;8.15;;;12.80;70.30;;;;;;5031901;28;20038;-65
2022/06/02 03:20:08;;;;;;;11.48;8.15;;;12.70;71.00;;;;;;5035492;28;20074;-65
2022/06/02 03:23:03;;;;;;;11.20;8.40;;;12.70;70.40;;;;;;5036636;28;20410;-65
2022/06/02 03:25:53;;;;;;;12.23;8.80;;;12.70;70.50;;;;;;5034983;28;20108;-65
2022/06/02 03:28:42;;;;;;;12.07;8.68;;;12.70;70.50;;;;;;5032547;28;20471;-65
2022/06/02 03:31:34;;;;;;;11.88;8.00;;;12.70;70.60;;;;;;5045029;28;20088;-65
2022/06/02 03:34:03;;;;;;;13.00;9.07;;;12.60;70.50;;;;;;5035389;28;20109;-65
2022/06/02 03:36:41;;;;;;;11.52;8.35;;;12.60;70.60;;;;;;5034527;28;20021;-65
2022/06/02 03:39:24;;;;;;;12.27;9.30;;;12.60;70.60;;;;;;5041461;28;20022;-65
2022/06/02 03:42:20;;;;;;;12.80;9.15;;;12.70;70.70;;;;;;5019152;28;20316;-65
2022/06/02 03:45:03;;;;;;;12.60;8.85;;;12.60;70.60;;;;;;5039786;28;20029;-66
2022/06/02 03:47:57;;;;;;;11.50;8.75;;;12.60;70.70;;;;;;5035690;28;20045;-65
2022/06/02 03:51:01;;;;;;;11.98;8.90;;;12.60;70.70;;;;;;5035835;28;20029;-65
2022/06/02 03:53:50;;;;;;;14.40;9.18;;;12.60;70.80;;;;;;5049397;28;20031;-65
2022/06/02 03:56:49;;;;;;;13.65;10.23;;;12.60;70.80;;;;;;5043836;28;20029;-65
2022/06/02 03:59:36;;;;;;;12.75;9.77;;;12.60;70.80;;;;;;5043376;28;20037;-65
2022/06/02 04:02:07;;;;;;;13.25;9.15;;;12.60;70.90;;;;;;5047533;28;20116;-65
2022/06/02 04:05:10;;;;;;;14.27;9.88;;;12.60;70.90;;;;;;5048917;28;20040;-65
2022/06/02 04:07:54;;;;;;;13.75;10.48;;;12.60;71.00;;;;;;5036553;28;20041;-65
2022/06/02 04:10:36;;;;;;;12.98;9.50;;;12.60;71.00;;;;;;5041567;28;20450;-65
2022/06/02 04:13:39;;;;;;;12.32;9.52;;;12.60;71.10;;;;;;5036513;28;20034;-65
2022/06/02 04:16:31;;;;;;;14.35;10.05;;;12.60;71.10;;;;;;5040022;28;20041;-64
2022/06/02 04:22:24;;;;;;;13.23;9.38;;;12.70;71.20;;;;;;5044775;28;20021;-65
2022/06/02 04:25:29;;;;;;;13.80;10.13;;;12.70;71.20;;;;;;5043593;28;20026;-65
2022/06/02 04:28:00;;;;;;;13.07;9.60;;;12.70;71.40;;;;;;5047774;28;20108;-65
2022/06/02 04:30:53;;;;;;;12.55;9.65;;;12.70;71.40;;;;;;5041678;28;20021;-65
2022/06/02 04:33:40;;;;;;;12.57;9.65;;;12.80;71.50;;;;;;5052640;28;20419;-65
2022/06/02 04:36:36;;;;;;;13.95;10.40;;;12.80;71.50;;;;;;5038180;28;20430;-65
2022/06/02 04:39:37;;;;;;;13.55;9.93;;;12.80;71.60;;;;;;5043923;28;20434;-67
2022/06/02 04:42:11;;;;;;;13.95;9.23;;;12.90;71.60;;;;;;5044308;28;20029;-64
2022/06/02 04:45:06;;;;;;;14.25;9.95;;;12.90;71.70;;;;;;5043179;28;20361;-65
2022/06/02 04:48:02;;;;;;;13.23;10.20;;;12.90;71.80;;;;;;5040665;28;20083;-64
2022/06/02 04:50:38;;;;;;;13.68;9.95;;;13.00;71.90;;;;;;5050472;28;20123;-64
2022/06/02 04:53:14;;;;;;;14.02;10.32;;;13.00;72.60;;;;;;5053170;28;20140;-64
2022/06/02 04:56:16;;;;;;;15.23;11.20;;;13.00;72.00;;;;;;5047029;28;20140;-64
2022/06/02 04:58:47;;;;;;;14.23;11.00;;;13.10;72.10;;;;;;5054379;28;20320;-64
2022/06/02 05:01:54;;;;;;;15.10;11.77;;;13.10;72.10;;;;;;5041367;28;20025;-64
2022/06/02 05:04:30;;;;;;;14.00;10.88;;;13.20;72.10;;;;;;5056515;28;20094;-65
2022/06/02 05:07:34;;;;;;;14.52;11.30;;;13.20;72.70;;;;;;5051320;28;20037;-64
2022/06/02 05:10:20;;;;;;;15.10;10.75;;;13.30;72.00;;;;;;5027336;28;20051;-64
2022/06/02 05:13:16;;;;;;;14.48;11.00;;;13.70;72.30;;;;;;5041270;28;20053;-65
2022/06/02 05:16:15;;;;;;;15.32;11.10;;;14.70;69.70;;;;;;5036844;28;20120;-65
2022/06/02 05:18:59;;;;;;;13.80;10.95;;;15.80;66.40;;;;;;5041528;28;20029;-64
2022/06/02 05:21:48;;;;;;;15.13;11.77;;;15.70;66.10;;;;;;5047360;28;20041;-65
2022/06/02 05:24:37;;;;;;;14.65;10.98;;;15.40;66.90;;;;;;5056417;28;20032;-64
2022/06/02 05:27:20;;;;;;;13.73;10.90;;;15.20;67.70;;;;;;5050032;28;20646;-64
2022/06/02 05:30:22;;;;;;;15.20;11.32;;;15.10;68.20;;;;;;5043006;28;20049;-65
2022/06/02 05:33:19;;;;;;;14.70;10.40;;;15.10;68.60;;;;;;5046576;28;20060;-64
2022/06/02 05:35:44;;;;;;;14.45;10.30;;;15.10;68.70;;;;;;5036986;28;20393;-64
2022/06/02 05:38:51;;;;;;;14.95;11.40;;;15.10;68.60;;;;;;5040500;28;20017;-65
2022/06/02 05:41:38;;;;;;;14.13;10.10;;;15.20;68.60;;;;;;5036360;28;20319;-64
2022/06/02 05:44:21;;;;;;;12.57;10.38;;;15.20;68.60;;;;;;5050109;28;20025;-63
2022/06/02 05:47:11;;;;;;;12.80;10.27;;;15.30;68.50;;;;;;5041938;28;20025;-63
2022/06/02 05:49:40;;;;;;;14.48;9.98;;;15.30;68.40;;;;;;5047127;28;20037;-63
2022/06/02 05:52:15;;;;;;;13.43;9.55;;;15.40;68.40;;;;;;5042320;28;20064;-64
2022/06/02 05:55:24;;;;;;;15.75;9.35;;;15.40;68.40;;;;;;5055829;28;20024;-63
2022/06/02 05:58:05;;;;;;;12.23;9.23;;;15.50;68.20;;;;;;5039654;28;20065;-63
2022/06/02 06:00:55;;;;;;;13.90;9.25;;;15.60;68.20;;;;;;5050960;28;20032;-64
2022/06/02 06:03:36;;;;;;;12.85;9.68;;;15.70;68.00;;;;;;5043678;28;20369;-63
2022/06/02 06:06:23;;;;;;;12.88;9.40;;;15.90;67.70;;;;;;5044763;28;20037;-63
2022/06/02 06:09:12;;;;;;;13.75;8.32;;;16.00;67.60;;;;;;5044495;28;20106;-63
2022/06/02 06:12:00;;;;;;;11.82;8.45;;;16.10;67.20;;;;;;5041051;28;20037;-64
2022/06/02 06:14:39;;;;;;;11.48;8.50;;;16.30;66.90;;;;;;5041115;28;20041;-63
2022/06/02 06:17:20;;;;;;;12.00;8.02;;;16.40;66.70;;;;;;5038258;28;20454;-64
2022/06/02 06:19:56;;;;;;;11.57;7.57;;;16.50;66.50;;;;;;5043633;28;20029;-64
2022/06/02 06:22:49;;;;;;;10.57;7.35;;;16.50;66.30;;;;;;5044843;28;20033;-63
2022/06/02 06:25:41;;;;;;;10.18;6.63;;;16.50;66.40;;;;;;5042694;28;20033;-63
2022/06/02 06:28:10;;;;;;;9.07;6.65;;;16.50;66.40;;;;;;5051809;28;20091;-63
2022/06/02 06:30:56;;;;;;;11.25;6.55;;;16.60;66.20;;;;;;5045727;28;20095;-64
2022/06/02 06:33:30;;;;;;;8.73;5.57;;;16.80;65.80;;;;;;5053572;28;20029;-64
2022/06/02 06:36:07;;;;;;;7.75;4.57;;;16.80;65.20;;;;;;5049799;28;20055;-64
2022/06/02 06:38:51;;;;;;;8.75;4.85;;;16.80;65.30;;;;;;5041398;28;20332;-64
2022/06/02 06:41:40;;;;;;;9.18;4.75;;;16.70;65.40;;;;;;5039825;28;20086;-65
2022/06/02 06:44:08;;;;;;;8.43;4.65;;;16.50;66.50;;;;;;5041712;28;20124;-63
2022/06/02 06:46:49;;;;;;;9.52;4.65;;;16.40;66.10;;;;;;5041384;28;20125;-63
2022/06/02 06:49:27;;;;;;;7.22;4.20;;;16.40;66.10;;;;;;5039691;28;20142;-64
2022/06/02 06:52:24;;;;;;;6.95;3.53;;;16.30;66.20;;;;;;5038531;28;20465;-64
2022/06/02 06:55:02;;;;;;;10.43;4.43;;;16.30;66.40;;;;;;5041455;28;20439;-63
2022/06/02 06:57:38;;;;;;;9.80;4.15;;;16.10;66.60;;;;;;5055069;28;20032;-64
2022/06/02 07:00:09;;;;;;;7.35;4.10;;;16.10;66.90;;;;;;5042544;28;20064;-64
2022/06/02 07:02:59;;;;;;;8.25;4.35;;;16.20;66.90;;;;;;5046408;28;20040;-64
2022/06/02 07:05:49;;;;;;;5.88;3.42;;;16.60;65.90;;;;;;5052478;28;20025;-64
2022/06/02 07:08:40;;;;;;;6.07;2.83;;;17.10;64.50;;;;;;5048121;28;20366;-64
2022/06/02 07:14:24;;;;;;;7.18;3.35;;;17.10;63.50;;;;;;5044133;28;20029;-64
2022/06/02 07:16:55;;;;;;;6.82;3.22;;;16.90;64.00;;;;;;5040900;28;20029;-64
2022/06/02 07:19:21;;;;;;;;;;;16.90;64.20;;;;;;5040794;28;20036;-64
2022/06/02 07:21:50;;;;;;;6.00;2.75;;;17.20;63.90;;;;;;5048241;28;20336;-64
2022/06/02 07:24:30;;;;;;;6.32;3.42;;;17.30;63.00;;;;;;5049008;28;20032;-64
2022/06/02 07:27:24;;;;;;;6.93;3.50;;;17.30;62.70;;;;;;5039200;28;20043;-64
2022/06/02 07:30:24;;;;;;;6.65;3.05;;;17.10;62.90;;;;;;5040759;28;20029;-64
2022/06/02 07:33:03;;;;;;;4.80;2.60;;;17.00;63.30;;;;;;5044539;28;20486;-65
2022/06/02 07:35:47;;;;;;;5.38;2.90;;;16.90;63.30;;;;;;5044409;28;20115;-65
2022/06/02 07:38:50;;;;;;;5.53;2.47;;;16.80;63.60;;;;;;5040592;28;20020;-65
2022/06/02 07:41:55;;;;;;;7.32;3.20;;;16.70;64.00;;;;;;5047332;28;20384;-65
2022/06/02 07:44:54;;;;;;;5.70;2.55;;;16.70;64.10;;;;;;5045552;28;20346;-65
2022/06/02 07:47:44;;;;;;;5.93;2.97;;;17.20;62.90;;;;;;5035164;28;20041;-65
2022/06/02 07:50:17;;;;;;;4.88;2.58;;;17.80;61.20;;;;;;5039719;28;20025;-65
2022/06/02 07:53:01;;;;;;;5.93;2.67;;;18.40;60.10;;;;;;5039874;28;20460;-65
2022/06/02 07:55:27;;;;;;;4.63;2.42;;;18.90;58.90;;;;;;5038883;28;20057;-65
2022/06/02 07:58:02;;;;;;;4.68;2.45;;;19.40;58.10;;;;;;5019392;28;20060;-65
2022/06/02 08:00:38;;;;;;;3.92;2.10;;;19.70;57.10;;;;;;5032972;28;20439;-65
2022/06/02 08:03:31;;;;;;;5.28;2.35;;;20.00;56.30;;;;;;5036476;28;20057;-64
2022/06/02 08:06:16;;;;;;;4.18;2.20;;;20.30;55.40;;;;;;5038477;28;20041;-65
2022/06/02 08:09:01;;;;;;;5.22;2.20;;;20.50;54.90;;;;;;5031528;28;20053;-64
2022/06/02 08:11:36;;;;;;;4.18;2.17;;;20.70;53.50;;;;;;5035664;28;20045;-65
2022/06/02 08:14:32;;;;;;;5.50;2.03;;;20.90;52.50;;;;;;5030854;28;20103;-65
2022/06/02 08:17:20;;;;;;;4.63;2.15;;;21.00;52.40;;;;;;5015892;28;20060;-65
2022/06/02 08:19:49;;;;;;;5.03;2.33;;;21.20;52.20;;;;;;5037093;28;20362;-66
2022/06/02 08:22:37;;;;;;;4.60;2.10;;;21.30;52.10;;;;;;5046165;28;20036;-65
2022/06/02 08:25:11;;;;;;;5.55;2.30;;;21.50;51.80;;;;;;5044967;28;20360;-65
2022/06/02 08:27:55;;;;;;;4.28;1.92;;;21.60;51.20;;;;;;5041310;28;20082;-65
2022/06/02 08:31:04;;;;;;;5.90;2.13;;;21.50;51.20;;;;;;5049535;28;20025;-64
2022/06/02 08:33:50;;;;;;;6.05;2.50;;;21.10;51.70;;;;;;5049984;28;20442;-64
2022/06/02 08:36:24;;;;;;;8.52;2.33;;;20.50;52.10;;;;;;5049252;28;20057;-65
2022/06/02 08:39:09;;;;;;;5.60;2.33;;;20.20;52.60;;;;;;5054647;28;20034;-65
2022/06/02 08:41:57;;;;;;;4.32;1.88;;;19.80;52.80;;;;;;5044778;28;20025;-65
2022/06/02 08:44:38;;;;;;;6.35;2.03;;;19.80;53.00;;;;;;5049075;28;20064;-65
2022/06/02 08:47:41;;;;;;;4.47;2.08;;;20.20;52.50;;;;;;5043549;28;20438;-65
2022/06/02 08:50:25;;;;;;;3.10;1.63;;;20.60;51.50;;;;;;5053591;28;20477;-65
2022/06/02 08:53:09;;;;;;;5.30;1.90;;;20.90;50.80;;;;;;5019396;28;20375;-65
2022/06/02 08:55:59;;;;;;;4.53;1.58;;;21.20;50.30;;;;;;5039470;28;20025;-64
2022/06/02 08:58:31;;;;;;;4.95;1.63;;;21.50;49.20;;;;;;5040060;28;20040;-65
2022/06/02 09:01:34;;;;;;;3.05;1.50;;;21.80;48.60;;;;;;5030227;28;20128;-64
2022/06/02 09:04:24;;;;;;;4.00;1.52;;;22.00;48.00;;;;;;5041982;28;20021;-64
2022/06/02 09:07:28;;;;;;;3.38;1.45;;;21.80;48.10;;;;;;5043665;28;20029;-65
2022/06/02 09:10:25;;;;;;;3.50;1.30;;;21.90;48.00;;;;;;5039880;28;20081;-65
2022/06/02 09:13:09;;;;;;;2.90;1.27;;;22.10;47.40;;;;;;5038080;28;20028;-64
2022/06/02 09:15:40;;;;;;;7.00;1.85;;;22.40;47.00;;;;;;5035116;28;20033;-65
2022/06/02 09:18:15;;;;;;;4.57;1.83;;;22.50;46.10;;;;;;5042182;28;20025;-65
2022/06/02 09:20:59;;;;;;;3.97;1.45;;;22.60;45.80;;;;;;5025599;28;20438;-65
2022/06/02 09:23:55;;;;;;;3.42;1.50;;;22.70;45.20;;;;;;5030547;28;20048;-65
2022/06/02 09:26:32;;;;;;;4.28;1.70;;;22.80;44.80;;;;;;5047714;28;20037;-65
2022/06/02 09:29:25;;;;;;;3.03;1.33;;;22.90;44.70;;;;;;5050397;28;20030;-65
2022/06/02 09:32:15;;;;;;;4.80;1.45;;;23.10;44.70;;;;;;5038185;28;20064;-64
2022/06/02 09:34:57;;;;;;;3.88;1.42;;;23.10;44.60;;;;;;5022493;28;20176;-65
2022/06/02 09:37:50;;;;;;;3.05;1.33;;;23.20;44.40;;;;;;5027175;28;20108;-65
2022/06/02 09:40:34;;;;;;;3.15;1.45;;;23.20;44.00;;;;;;5034951;28;20026;-65
2022/06/02 09:43:20;;;;;;;4.88;1.60;;;23.10;43.90;;;;;;5043248;28;20029;-65
2022/06/02 09:46:26;;;;;;;4.53;1.67;;;22.90;43.90;;;;;;5041084;28;20124;-65
2022/06/02 09:49:12;;;;;;;3.22;1.60;;;22.50;44.50;;;;;;5047021;28;20041;-65
2022/06/02 09:51:58;;;;;;;3.60;1.50;;;22.00;45.30;;;;;;5049468;28;20033;-65
2022/06/02 09:55:02;;;;;;;5.40;1.55;;;21.70;45.40;;;;;;5053243;28;20047;-65
2022/06/02 09:57:58;;;;;;;1.00;0.90;;;21.90;45.10;;;;;;5030085;28;20028;-65
2022/06/02 10:00:38;;;;;;;2.35;1.30;;;22.20;44.50;;;;;;5045433;28;20031;-65
2022/06/02 10:03:33;;;;;;;5.50;1.45;;;22.40;44.00;;;;;;5036589;28;20029;-65
2022/06/02 10:06:29;;;;;;;5.13;1.48;;;22.80;43.50;;;;;;5052797;28;20025;-65
2022/06/02 10:09:19;;;;;;;5.95;2.85;;;22.90;43.70;;;;;;5051484;28;20045;-65
2022/06/02 10:11:56;;;;;;;4.63;1.92;;;23.00;43.80;;;;;;5041649;28;20458;-65
2022/06/02 10:14:55;;;;;;;3.78;1.65;;;23.20;43.50;;;;;;5035494;28;20377;-65
2022/06/02 10:17:49;;;;;;;3.25;1.42;;;23.30;43.10;;;;;;5020366;28;20029;-65
2022/06/02 10:20:44;;;;;;;4.07;1.60;;;22.90;43.40;;;;;;5054734;28;20453;-65
2022/06/02 10:23:49;;;;;;;3.75;1.30;;;22.60;43.50;;;;;;5045701;28;20032;-65
2022/06/02 10:26:52;;;;;;;3.88;1.40;;;22.70;43.60;;;;;;5050736;28;20025;-65
2022/06/02 10:29:56;;;;;;;2.85;1.20;;;23.00;43.60;;;;;;5044370;28;20029;-65
2022/06/02 10:32:40;;;;;;;3.55;1.30;;;23.20;43.00;;;;;;5046257;28;20041;-66
2022/06/02 10:35:09;;;;;;;1.88;1.13;;;23.40;42.10;;;;;;5048800;28;20059;-66
2022/06/02 10:37:54;;;;;;;3.42;1.30;;;23.60;42.50;;;;;;5049505;28;20029;-67
2022/06/02 10:40:51;;;;;;;1.45;0.95;;;23.90;41.50;;;;;;5045496;28;20028;-65
2022/06/02 10:43:42;;;;;;;2.53;1.42;;;23.70;41.00;;;;;;5043838;28;20031;-65
2022/06/02 10:46:26;;;;;;;2.85;1.08;;;23.60;40.90;;;;;;5044086;28;20095;-65
2022/06/02 10:49:15;;;;;;;4.07;1.45;;;23.80;40.80;;;;;;5041228;28;20654;-65
2022/06/02 10:51:43;;;;;;;2.72;1.40;;;23.90;40.30;;;;;;5039731;28;20190;-65
2022/06/02 10:54:30;;;;;;;2.45;1.40;;;24.10;40.60;;;;;;5041024;28;20030;-65
2022/06/02 10:57:25;;;;;;;3.22;1.70;;;24.00;40.70;;;;;;5039411;28;20473;-63
2022/06/02 11:00:05;;;;;;;3.67;1.58;;;23.90;40.80;;;;;;5045001;28;20094;-63
2022/06/02 11:02:37;;;;;;;2.60;1.27;;;23.50;41.60;;;;;;5048502;28;20029;-63
2022/06/02 11:05:12;;;;;;;3.80;1.60;;;23.50;42.00;;;;;;5050002;28;20067;-63
2022/06/02 11:08:03;;;;;;;4.82;1.75;;;23.50;42.00;;;;;;5050577;28;20124;-63
2022/06/02 11:10:33;;;;;;;1.98;1.20;;;23.60;42.00;;;;;;5026564;28;20088;-63
2022/06/02 11:13:14;;;;;;;3.60;1.58;;;23.90;41.70;;;;;;5023506;28;20076;-63
2022/06/02 11:16:24;;;;;;;4.75;1.83;;;24.20;41.10;;;;;;5031570;28;20072;-64
2022/06/02 11:19:07;;;;;;;3.95;1.40;;;24.30;40.30;;;;;;5012390;28;20094;-64
2022/06/02 11:21:51;;;;;;;4.00;1.60;;;24.30;40.30;;;;;;5031772;28;20450;-64
2022/06/02 11:24:41;;;;;;;3.42;1.60;;;24.30;39.90;;;;;;5029303;28;20120;-64
2022/06/02 11:27:33;;;;;;;3.58;1.52;;;24.30;40.60;;;;;;5006107;28;20035;-65
2022/06/02 11:30:36;;;;;;;3.45;1.45;;;24.30;40.00;;;;;;5009349;28;20041;-65
2022/06/02 11:33:13;;;;;;;3.13;1.30;;;24.30;40.00;;;;;;5024693;28;20023;-64
2022/06/02 11:36:16;;;;;;;2.25;1.23;;;24.20;40.00;;;;;;5029769;28;20492;-65
2022/06/02 11:38:41;;;;;;;2.35;1.15;;;23.90;40.10;;;;;;5029191;28;20481;-65
2022/06/02 11:41:18;;;;;;;2.63;1.38;;;23.80;40.40;;;;;;5001250;28;20056;-64
2022/06/02 11:44:04;;;;;;;2.50;1.30;;;23.70;40.30;;;;;;5015638;28;20374;-65
2022/06/02 11:46:47;;;;;;;3.92;1.30;;;23.80;40.00;;;;;;5030242;28;20075;-64
2022/06/02 11:49:40;;;;;;;2.00;1.20;;;24.00;39.80;;;;;;5037873;28;20025;-65
2022/06/02 11:52:17;;;;;;;2.38;1.27;;;24.00;39.90;;;;;;5049462;28;20037;-65
2022/06/02 11:55:14;;;;;;;3.53;1.40;;;24.00;39.60;;;;;;5035519;28;20354;-64
2022/06/02 11:58:20;;;;;;;3.50;1.25;;;24.00;39.70;;;;;;5048888;28;20032;-64
2022/06/02 12:00:55;;;;;;;1.83;1.00;;;23.80;39.50;;;;;;5038560;28;20454;-64
2022/06/02 12:03:33;;;;;;;2.53;1.10;;;23.70;39.90;;;;;;5052015;28;20082;-64
2022/06/02 12:06:21;;;;;;;2.40;1.08;;;23.70;39.50;;;;;;5053910;28;20059;-65
2022/06/02 12:08:59;;;;;;;2.05;1.17;;;23.70;40.30;;;;;;5044980;28;20026;-65
2022/06/02 12:11:28;;;;;;;3.60;1.27;;;23.60;39.80;;;;;;5045871;28;20025;-64
2022/06/02 12:14:24;;;;;;;1.85;1.10;;;23.60;40.00;;;;;;5042552;28;20033;-64
2022/06/02 12:17:11;;;;;;;2.67;1.25;;;23.60;39.40;;;;;;5048491;28;20040;-64
2022/06/02 12:19:40;;;;;;;2.42;1.20;;;23.50;39.10;;;;;;5048990;28;20098;-64
2022/06/02 12:22:41;;;;;;;3.08;1.58;;;23.30;39.30;;;;;;5049786;28;20461;-64
2022/06/02 12:25:25;;;;;;;;;;;23.20;39.40;;;;;;5043035;28;20344;-64
2022/06/02 12:28:22;;;;;;;2.55;1.35;;;23.00;40.10;;;;;;5051642;28;19973;-64
2022/06/02 12:31:21;;;;;;;3.58;1.42;;;22.80;40.10;;;;;;5050797;28;20065;-64
2022/06/02 12:34:25;;;;;;;4.20;1.50;;;22.70;40.30;;;;;;5046792;28;20048;-65
2022/06/02 12:37:00;;;;;;;3.08;1.50;;;22.50;40.60;;;;;;5046305;28;20102;-64
2022/06/02 12:39:28;;;;;;;3.38;1.38;;;22.40;40.60;;;;;;5055058;28;20037;-65
2022/06/02 12:42:28;;;;;;;4.00;1.60;;;22.30;40.90;;;;;;5038930;28;20038;-65
2022/06/02 12:45:03;;;;;;;3.33;1.58;;;22.20;41.20;;;;;;5046876;28;20034;-65
2022/06/02 12:47:59;;;;;;;2.78;1.30;;;22.20;41.50;;;;;;5047337;28;20462;-65
2022/06/02 12:50:34;;;;;;;4.30;1.73;;;22.20;41.40;;;;;;5052030;28;20399;-65
2022/06/02 12:53:27;;;;;;;4.03;1.55;;;22.20;41.40;;;;;;5056968;28;20360;-65
2022/06/02 12:56:17;;;;;;;2.88;1.45;;;22.10;41.80;;;;;;5039162;28;20094;-67
2022/06/02 12:59:20;;;;;;;2.20;1.35;;;22.10;41.40;;;;;;5043923;28;20040;-65
2022/06/02 13:02:15;;;;;;;2.65;1.40;;;22.00;41.60;;;;;;5055501;28;20041;-65
2022/06/02 13:05:09;;;;;;;2.95;1.40;;;22.00;41.60;;;;;;5056893;28;20029;-65
2022/06/02 13:07:52;;;;;;;3.38;1.60;;;21.90;41.70;;;;;;5056371;28;20029;-65
2022/06/02 13:10:51;;;;;;;3.88;1.73;;;21.90;41.80;;;;;;5056217;28;20075;-65
2022/06/02 13:13:39;;;;;;;3.35;1.58;;;21.90;41.90;;;;;;5033398;28;20407;-65
2022/06/02 13:16:45;;;;;;;4.70;1.80;;;21.90;41.90;;;;;;5017514;28;20414;-65
2022/06/02 13:19:46;;;;;;;3.20;1.67;;;22.00;42.20;;;;;;5016381;28;20096;-65
2022/06/02 13:22:15;;;;;;;3.17;1.50;;;22.00;41.90;;;;;;5034893;28;20350;-65
2022/06/02 13:24:43;;;;;;;3.30;1.70;;;22.00;42.00;;;;;;5017361;28;20104;-65
2022/06/02 13:27:12;;;;;;;3.13;1.60;;;22.00;42.00;;;;;;5027450;28;20033;-65
2022/06/02 13:29:57;;;;;;;4.28;1.55;;;22.10;42.10;;;;;;5007556;28;20037;-65
2022/06/02 13:33:16;;;;;;;3.17;1.65;;;22.10;41.70;;;;;;5022037;28;20068;-65
2022/06/02 13:36:19;;;;;;;5.38;1.45;;;22.10;41.30;;;;;;4936993;29;20035;-65
2022/06/02 13:39:21;;;;;;;4.05;1.60;;;22.10;41.70;;;;;;4936675;29;20032;-64
2022/06/02 13:41:59;;;;;;;3.20;1.48;;;22.10;41.40;;;;;;4929428;29;20461;-64
2022/06/02 13:44:55;;;;;;;3.80;1.50;;;22.00;41.40;;;;;;4931813;29;20078;-65
2022/06/02 13:47:26;;;;;;;3.08;1.40;;;22.00;41.50;;;;;;4931089;29;20388;-64
2022/06/02 13:50:13;;;;;;;3.08;1.38;;;22.10;41.70;;;;;;4933818;29;20079;-64
2022/06/02 13:53:20;;;;;;;3.78;1.40;;;22.10;41.60;;;;;;4949830;29;20437;-65
2022/06/02 13:59:30;;;;;;;3.42;1.58;;;22.10;41.60;;;;;;4950432;29;20042;-65
2022/06/02 14:02:04;;;;;;;2.85;1.33;;;22.00;41.60;;;;;;4949248;29;20036;-65
2022/06/02 14:04:36;;;;;;;5.07;2.00;;;22.00;41.90;;;;;;4950876;29;20035;-65
2022/06/02 14:07:29;;;;;;;4.85;1.60;;;22.00;42.10;;;;;;4944888;29;20040;-65
2022/06/02 14:10:26;;;;;;;3.58;1.90;;;21.90;42.30;;;;;;4996962;28;20146;-64
2022/06/02 14:13:13;;;;;;;5.07;1.52;;;21.90;42.50;;;;;;5036147;28;20601;-65
2022/06/02 14:15:59;;;;;;;3.38;1.30;;;21.80;42.80;;;;;;5036521;28;20026;-66
2022/06/02 14:18:55;;;;;;;3.47;1.40;;;21.70;43.00;;;;;;5033641;28;20508;-65
2022/06/02 14:21:40;;;;;;;2.95;1.40;;;21.60;43.70;;;;;;5037455;28;20054;-65
2022/06/02 14:24:23;;;;;;;3.15;1.38;;;21.50;43.10;;;;;;5037552;28;20067;-66
2022/06/02 14:26:58;;;;;;;2.25;1.30;;;21.50;43.20;;;;;;5030550;28;20327;-65
2022/06/02 14:29:44;;;;;;;3.67;1.45;;;21.50;43.30;;;;;;5034412;28;20405;-67
2022/06/02 14:32:42;;;;;;;4.32;1.38;;;21.50;43.00;;;;;;5042536;28;20020;-66
2022/06/02 14:35:13;;;;;;;3.42;1.50;;;21.50;42.90;;;;;;5034755;28;20029;-66